Terminal Aerodrome Forecast
Issued by NWS

Current Version | Previous Version | Graphics & Text | Print | Product List | Glossary On
Versions: 1 2 3 4 5 6 7 8 9 10 11 12 13 14 15 16 17 18 19 20 21
000
FTUS41 KRLX 190800 AAA
TAFCKB
TAF AMD
KCKB 190829Z 1908/2006 VRB03KT P6SM BKN060
      TEMPO 1910/1912 5SM BR SCT070
     FM191500 11004KT P6SM SCT040
     FM200200 15004KT P6SM SCT250
     FM200400 15004KT P6SM FEW050=

USA.gov is the U.S. government's official web portal to all federal, state and local government web resources and services.